Time;durP1;ratioP1;P1;durP2;ratioP2;P2;SDS_P1;SDS_P2;PMS_P1;PMS_P2;Temp;Humidity;BMP_temperature;BMP_pressure;BME280_temperature;BME280_humidity;BME280_pressure;Samples;Min_cycle;Max_cycle;Signal;HPM_P1;HPM_P2
2023/10/02 00:01:52;;;;;;;14.20;8.63;;;;;;;16.15;59.37;96988.66;5044123;28;20424;-69
2023/10/02 00:04:18;;;;;;;11.53;7.37;;;;;;;16.06;59.82;96986.53;5045116;28;20496;-69
2023/10/02 00:06:47;;;;;;;14.70;7.37;;;;;;;15.98;60.02;96989.63;5045206;28;20410;-69
2023/10/02 00:09:14;;;;;;;14.67;7.97;;;;;;;16.04;59.86;96991.09;5045220;28;20885;-70
2023/10/02 00:11:39;;;;;;;15.23;7.43;;;;;;;16.07;60.21;96990.91;5045620;28;20441;-66
2023/10/02 00:14:19;;;;;;;16.33;7.50;;;;;;;16.01;60.62;96996.53;5045644;28;21103;-69
2023/10/02 00:17:00;;;;;;;14.80;7.80;;;;;;;16.00;60.32;96989.53;5049017;28;20206;-69
2023/10/02 00:19:40;;;;;;;12.63;7.47;;;;;;;16.02;60.47;96990.31;5049257;28;20467;-68
2023/10/02 00:22:07;;;;;;;12.80;7.57;;;;;;;15.92;60.88;96995.28;5049288;28;20448;-68
2023/10/02 00:24:38;;;;;;;17.23;8.20;;;;;;;15.93;61.33;96996.13;5049290;28;20416;-69
2023/10/02 00:27:09;;;;;;;14.40;7.70;;;;;;;16.05;60.86;96987.47;5049228;28;20948;-67
2023/10/02 00:29:51;;;;;;;22.87;9.30;;;;;;;15.81;61.43;96987.91;5048986;28;20428;-69
2023/10/02 00:32:19;;;;;;;14.97;8.53;;;;;;;15.90;61.13;96990.97;5049260;28;20484;-69
2023/10/02 00:34:50;;;;;;;16.73;9.27;;;;;;;15.88;61.55;96989.28;5048835;28;20986;-70
2023/10/02 00:37:16;;;;;;;14.10;8.23;;;;;;;15.94;61.34;96992.53;5048597;28;20902;-69
2023/10/02 00:39:47;;;;;;;13.10;8.27;;;;;;;15.85;61.30;96986.81;5048811;28;20425;-68
2023/10/02 00:42:16;;;;;;;15.60;8.40;;;;;;;15.78;61.57;96993.38;5049179;28;20835;-70
2023/10/02 00:44:56;;;;;;;13.40;7.43;;;;;;;15.80;61.38;96994.16;5049080;28;20453;-68
2023/10/02 00:47:40;;;;;;;14.80;7.00;;;;;;;15.75;61.60;96988.25;5048718;28;21248;-69
2023/10/02 00:50:16;;;;;;;16.33;8.47;;;;;;;15.67;61.50;96982.50;5048787;28;20461;-68
2023/10/02 00:52:47;;;;;;;16.13;7.97;;;;;;;15.58;61.73;96980.34;5048805;28;20401;-68
2023/10/02 00:55:15;;;;;;;11.60;7.10;;;;;;;15.53;61.77;96979.75;5048534;28;20484;-69
2023/10/02 00:57:42;;;;;;;15.27;8.10;;;;;;;15.51;61.79;96977.19;5048325;28;20460;-70
2023/10/02 01:00:30;;;;;;;14.50;8.50;;;;;;;15.62;61.64;96974.81;5048385;28;20484;-69
2023/10/02 01:02:57;;;;;;;19.63;9.10;;;;;;;15.48;62.29;96973.88;5048369;28;20520;-70
2023/10/02 01:05:30;;;;;;;14.00;8.27;;;;;;;15.59;61.83;96977.63;5045348;28;21201;-68
2023/10/02 01:07:57;;;;;;;13.97;7.80;;;;;;;15.54;62.09;96973.50;5047916;28;20417;-68
2023/10/02 01:10:29;;;;;;;16.10;8.07;;;;;;;15.58;61.55;96975.06;5048144;28;20429;-69
2023/10/02 01:13:01;;;;;;;23.57;8.30;;;;;;;15.55;61.62;96973.44;5048142;28;20410;-67
2023/10/02 01:15:28;;;;;;;18.00;8.53;;;;;;;15.58;61.33;96967.13;5048178;28;20437;-68
2023/10/02 01:20:40;;;;;;;18.03;8.03;;;;;;;15.42;61.95;96967.09;5048260;28;20436;-68
2023/10/02 01:23:17;;;;;;;17.83;9.10;;;;;;;15.48;61.73;96964.13;5047844;28;20405;-70
2023/10/02 01:25:47;;;;;;;14.60;7.10;;;;;;;15.56;61.74;96961.06;5047190;28;20420;-69
2023/10/02 01:28:20;;;;;;;14.30;8.40;;;;;;;15.54;61.71;96965.56;5047896;28;20405;-69
2023/10/02 01:30:47;;;;;;;13.80;7.37;;;;;;;15.53;61.51;96963.88;5047675;28;20429;-69
2023/10/02 01:35:40;;;;;;;16.50;9.90;;;;;;;15.46;61.51;96969.50;5047374;28;21296;-69
2023/10/02 01:38:14;;;;;;;13.17;8.90;;;;;;;15.34;62.08;96959.59;5047829;28;20457;-70
2023/10/02 01:40:54;;;;;;;24.10;9.50;;;;;;;15.23;62.40;96964.59;5028112;28;20434;-69
2023/10/02 01:43:22;;;;;;;30.17;8.83;;;;;;;15.18;62.54;96961.34;5028177;28;20394;-69
2023/10/02 01:45:48;;;;;;;12.63;8.30;;;;;;;15.12;62.77;96948.44;5027674;28;20416;-69
2023/10/02 01:48:36;;;;;;;16.13;8.20;;;;;;;15.16;62.74;96957.94;5027895;28;20414;-69
2023/10/02 01:51:26;;;;;;;15.10;8.03;;;;;;;15.04;62.94;96944.41;5027673;28;20556;-70
2023/10/02 01:53:58;;;;;;;21.20;8.33;;;;;;;15.09;62.61;96951.25;5027896;28;20406;-69
2023/10/02 01:56:29;;;;;;;12.27;8.50;;;;;;;15.10;62.93;96952.97;5027486;28;21148;-69
2023/10/02 01:59:08;;;;;;;14.40;8.23;;;;;;;15.12;62.88;96951.97;5027542;28;20434;-68
2023/10/02 02:01:46;;;;;;;14.00;8.07;;;;;;;15.12;62.81;96953.72;5027776;28;20444;-69
2023/10/02 02:04:14;;;;;;;17.77;7.97;;;;;;;15.18;62.74;96950.78;5027459;28;20480;-69
2023/10/02 02:06:51;;;;;;;12.87;8.10;;;;;;;15.10;62.70;96947.69;5027175;28;20407;-68
2023/10/02 02:09:23;;;;;;;16.00;8.60;;;;;;;14.97;63.26;96945.69;5027444;28;20480;-70
2023/10/02 02:12:05;;;;;;;11.20;7.43;;;;;;;15.02;63.25;96950.72;5027563;28;20738;-69
2023/10/02 02:14:31;;;;;;;16.47;9.13;;;;;;;14.98;63.28;96960.63;5045268;28;20908;-70
2023/10/02 02:16:57;;;;;;;13.87;7.20;;;;;;;15.03;63.32;96950.66;5046905;28;20507;-69
2023/10/02 02:19:23;;;;;;;17.73;8.87;;;;;;;15.03;63.10;96949.81;5047235;28;20429;-70
2023/10/02 02:21:49;;;;;;;14.67;8.00;;;;;;;15.02;63.46;96950.72;5046927;28;20649;-70
2023/10/02 02:24:14;;;;;;;15.33;8.93;;;;;;;15.04;63.35;96948.84;5047205;28;20467;-68
2023/10/02 02:26:40;;;;;;;13.63;8.03;;;;;;;15.03;63.37;96957.75;5046968;28;20610;-69
2023/10/02 02:29:23;;;;;;;13.80;7.97;;;;;;;14.88;63.68;96956.75;5047102;28;20244;-69
2023/10/02 02:31:53;;;;;;;25.37;9.93;;;;;;;14.79;63.94;96955.44;5046968;28;20174;-70
2023/10/02 02:34:20;;;;;;;18.90;8.47;;;;;;;14.73;64.39;96958.38;5046573;28;20402;-71
2023/10/02 02:36:49;;;;;;;16.97;7.67;;;;;;;14.69;64.36;96942.78;5046025;28;20461;-70
2023/10/02 02:39:15;;;;;;;12.90;7.40;;;;;;;14.71;64.36;96951.47;5046377;28;20435;-70
2023/10/02 02:42:08;;;;;;;17.30;8.53;;;;;;;14.68;64.62;96949.00;5047111;28;20432;-70
2023/10/02 02:44:43;;;;;;;13.70;7.83;;;;;;;14.66;64.55;96945.59;5046685;28;20694;-71
2023/10/02 02:47:10;;;;;;;15.83;8.13;;;;;;;14.67;64.76;96950.78;5046584;28;20405;-70
2023/10/02 02:50:06;;;;;;;13.70;7.50;;;;;;;14.70;64.57;96950.63;5046749;28;20786;-69
2023/10/02 02:52:32;;;;;;;15.43;8.13;;;;;;;14.62;64.75;96950.16;5042066;28;20426;-69
2023/10/02 02:55:12;;;;;;;14.27;7.60;;;;;;;14.61;64.65;96944.03;5046863;28;20409;-69
2023/10/02 02:57:39;;;;;;;13.37;8.90;;;;;;;14.58;64.68;96949.47;5046421;28;20205;-70
2023/10/02 03:00:29;;;;;;;16.10;8.30;;;;;;;14.51;64.93;96947.19;5046425;28;20421;-67
2023/10/02 03:02:57;;;;;;;13.13;7.77;;;;;;;14.50;65.06;96954.25;5046527;28;20433;-67
2023/10/02 03:05:24;;;;;;;13.97;7.93;;;;;;;14.51;65.58;96944.56;5046298;28;20500;-70
2023/10/02 03:07:54;;;;;;;13.10;8.53;;;;;;;14.48;65.54;96944.69;5046201;28;21006;-69
2023/10/02 03:10:23;;;;;;;15.80;8.73;;;;;;;14.54;65.60;96949.72;5046417;28;20421;-68
2023/10/02 03:12:50;;;;;;;16.40;9.33;;;;;;;14.47;65.70;96951.75;5046390;28;20876;-68
2023/10/02 03:15:20;;;;;;;15.40;9.27;;;;;;;14.31;65.90;96950.81;5046031;28;20433;-70
2023/10/02 03:17:46;;;;;;;13.27;9.53;;;;;;;14.28;65.95;96949.19;5046008;28;20944;-69
2023/10/02 03:20:22;;;;;;;15.60;8.17;;;;;;;14.13;66.73;96955.25;5046318;28;20494;-69
2023/10/02 03:22:53;;;;;;;14.90;9.67;;;;;;;14.05;66.92;96946.84;5046301;28;20492;-70
2023/10/02 03:27:51;;;;;;;11.00;7.93;;;;;;;14.22;66.79;96953.91;5046372;28;20504;-69
2023/10/02 03:30:35;;;;;;;13.63;8.13;;;;;;;14.26;66.14;96950.22;5046097;28;20508;-70
2023/10/02 03:33:02;;;;;;;17.80;8.80;;;;;;;14.18;66.50;96951.44;5045907;28;20240;-70
2023/10/02 03:35:27;;;;;;;16.27;9.03;;;;;;;14.24;66.68;96952.06;5046028;28;20459;-69
2023/10/02 03:37:52;;;;;;;12.97;8.63;;;;;;;14.22;66.32;96946.00;5045983;28;20504;-69
2023/10/02 03:40:20;;;;;;;13.87;8.90;;;;;;;14.22;66.57;96944.25;5046063;28;20205;-69
2023/10/02 03:42:47;;;;;;;11.53;8.00;;;;;;;14.16;66.28;96947.16;5046063;28;20178;-69
2023/10/02 03:45:13;;;;;;;14.60;7.77;;;;;;;14.17;66.25;96938.31;5044921;28;20688;-69
2023/10/02 03:47:38;;;;;;;10.60;7.93;;;;;;;14.14;66.18;96951.66;5047342;28;20409;-69
2023/10/02 03:50:10;;;;;;;15.33;9.00;;;;;;;14.08;66.46;96944.03;5062469;28;20217;-67
2023/10/02 03:52:35;;;;;;;13.43;8.73;;;;;;;14.06;66.47;96943.28;5072479;28;20167;-68
2023/10/02 03:55:17;;;;;;;14.00;8.97;;;;;;;14.05;66.75;96945.03;5073350;28;20465;-70
2023/10/02 03:57:54;;;;;;;12.10;8.30;;;;;;;14.01;66.55;96940.88;5073986;28;20646;-70
2023/10/02 04:02:51;;;;;;;12.73;8.83;;;;;;;13.77;67.10;96941.13;5051443;28;20905;-69
2023/10/02 04:05:42;;;;;;;11.40;8.00;;;;;;;13.74;66.91;96938.63;5050183;28;20485;-69
2023/10/02 04:08:13;;;;;;;14.87;8.87;;;;;;;13.88;66.73;96937.09;5050135;28;20496;-70
2023/10/02 04:11:03;;;;;;;12.13;9.70;;;;;;;13.73;67.32;96936.91;5050086;28;20421;-69
2023/10/02 04:13:32;;;;;;;16.10;8.47;;;;;;;13.66;67.51;96929.38;5049316;28;20635;-68
2023/10/02 04:18:45;;;;;;;12.43;8.43;;;;;;;13.84;67.22;96931.16;5049787;28;20397;-70
2023/10/02 04:21:25;;;;;;;14.03;9.23;;;;;;;13.94;66.45;96927.13;5049580;28;20420;-69
2023/10/02 04:23:53;;;;;;;39.30;10.43;;;;;;;13.91;66.64;96937.81;5049848;28;20409;-67
2023/10/02 04:26:22;;;;;;;13.77;7.87;;;;;;;13.88;66.54;96934.47;5049988;28;20424;-69
2023/10/02 04:28:58;;;;;;;19.73;9.90;;;;;;;13.72;67.34;96942.25;5049582;28;20436;-68
2023/10/02 04:31:34;;;;;;;8.87;6.70;;;;;;;13.62;67.77;96944.47;5049321;28;20509;-69
2023/10/02 04:36:44;;;;;;;15.67;9.10;;;;;;;13.69;67.51;96939.78;5049382;28;20460;-69
2023/10/02 04:44:44;;;;;;;13.57;8.20;;;;;;;13.84;66.77;96943.44;5049051;28;20424;-70
2023/10/02 04:47:17;;;;;;;15.20;8.40;;;;;;;13.86;66.69;96944.25;5048850;28;20416;-69
2023/10/02 04:55:44;;;;;;;20.70;9.50;;;;;;;13.64;67.47;96941.78;5045973;28;20998;-71
2023/10/02 04:58:20;;;;;;;30.20;10.70;;;;;;;13.75;66.90;96953.53;5045759;28;20473;-67
2023/10/02 05:03:32;;;;;;;35.60;10.83;;;;;;;13.85;66.27;96947.81;5046896;28;20425;-69
2023/10/02 05:05:58;;;;;;;16.40;9.93;;;;;;;13.74;67.23;96956.22;5045744;28;20421;-69
2023/10/02 05:08:41;;;;;;;12.93;7.70;;;;;;;13.54;67.70;96958.03;5046454;28;20433;-68
2023/10/02 05:11:08;;;;;;;23.27;10.13;;;;;;;13.63;67.29;96948.84;5046267;28;20475;-69
2023/10/02 05:16:38;;;;;;;15.10;9.27;;;;;;;13.62;67.22;96955.03;5045253;28;20524;-68
2023/10/02 05:19:09;;;;;;;39.60;10.67;;;;;;;13.64;67.42;96950.53;5045507;28;20785;-69
2023/10/02 05:21:55;;;;;;;37.77;11.17;;;;;;;13.60;67.72;96956.88;5045931;28;20429;-70
2023/10/02 05:24:20;;;;;;;18.90;9.07;;;;;;;13.70;67.08;96955.53;5045518;28;20523;-68
2023/10/02 05:26:47;;;;;;;28.47;10.10;;;;;;;13.80;66.50;96965.66;5047170;28;20825;-68
2023/10/02 05:29:17;;;;;;;80.93;14.97;;;;;;;13.77;66.54;96964.00;5048236;28;20284;-70
2023/10/02 05:31:49;;;;;;;17.90;9.70;;;;;;;13.75;66.51;96966.72;5048628;28;20451;-71
2023/10/02 05:34:25;;;;;;;22.50;10.70;;;;;;;14.02;65.71;96971.59;5047046;28;20421;-69
2023/10/02 05:39:43;;;;;;;15.60;8.93;;;;;;;14.64;63.28;96972.06;5049054;28;20425;-69
2023/10/02 05:42:14;;;;;;;16.17;9.13;;;;;;;14.88;62.37;96977.03;5048449;28;20412;-70
2023/10/02 05:44:44;;;;;;;12.63;8.00;;;;;;;15.21;60.90;96977.91;5048145;28;20485;-68
2023/10/02 05:47:11;;;;;;;14.53;8.43;;;;;;;15.33;60.54;96979.06;5047403;28;20404;-70
2023/10/02 05:49:48;;;;;;;15.83;8.67;;;;;;;15.47;59.89;96978.28;5047804;28;21217;-71
2023/10/02 05:52:18;;;;;;;16.30;10.07;;;;;;;15.54;59.53;96978.81;5048014;28;20412;-68
2023/10/02 05:54:49;;;;;;;16.00;8.30;;;;;;;16.02;57.90;96982.38;5047759;28;20409;-70
2023/10/02 05:57:16;;;;;;;14.50;7.47;;;;;;;16.35;56.97;96976.09;5045110;28;21188;-68
2023/10/02 05:59:47;;;;;;;13.87;8.60;;;;;;;16.62;55.87;96976.25;5046785;28;20437;-69
2023/10/02 06:02:19;;;;;;;23.53;9.27;;;;;;;17.10;54.80;96977.81;5047322;28;20413;-69
2023/10/02 06:04:49;;;;;;;16.57;9.00;;;;;;;17.51;53.50;96973.56;5047524;28;20409;-68
2023/10/02 06:10:18;;;;;;;16.53;9.00;;;;;;;17.09;54.34;96980.56;5047175;28;20460;-70
2023/10/02 06:12:46;;;;;;;14.00;8.63;;;;;;;17.57;53.12;96973.16;5046778;28;20459;-70
2023/10/02 06:17:58;;;;;;;15.07;9.10;;;;;;;18.53;50.21;96974.06;5046992;28;20467;-70
2023/10/02 06:20:23;;;;;;;17.53;8.70;;;;;;;19.07;48.92;96981.09;5046777;28;20433;-69
2023/10/02 06:22:50;;;;;;;18.63;9.57;;;;;;;19.03;48.78;96976.94;5047152;28;20405;-71
2023/10/02 06:25:19;;;;;;;12.40;9.50;;;;;;;19.10;48.58;96980.88;5047426;28;20167;-70
2023/10/02 06:27:47;;;;;;;11.07;7.70;;;;;;;18.91;48.90;96975.13;5046504;28;20436;-70
2023/10/02 06:30:16;;;;;;;11.50;7.73;;;;;;;19.16;48.35;96983.13;5047075;28;20425;-70
2023/10/02 06:32:55;;;;;;;11.90;7.03;;;;;;;19.66;47.42;96984.03;5046728;28;20434;-70
2023/10/02 06:35:22;;;;;;;19.03;8.87;;;;;;;19.82;46.89;96983.84;5046986;28;20443;-68
2023/10/02 06:37:51;;;;;;;12.80;7.63;;;;;;;19.63;47.70;96981.59;5046508;28;20511;-69
2023/10/02 06:40:20;;;;;;;11.50;7.93;;;;;;;20.38;45.62;96980.63;5046943;28;20834;-69
2023/10/02 06:42:49;;;;;;;16.93;8.20;;;;;;;19.57;47.52;96982.03;5046375;28;20406;-69
2023/10/02 06:45:20;;;;;;;10.20;7.00;;;;;;;20.24;45.98;96980.81;5046763;28;20417;-69
2023/10/02 06:47:48;;;;;;;18.03;9.73;;;;;;;20.56;45.37;96980.28;5046601;28;20401;-69
2023/10/02 06:50:27;;;;;;;19.13;8.97;;;;;;;21.42;43.32;96981.72;5046737;28;20440;-70
2023/10/02 06:52:54;;;;;;;26.20;8.00;;;;;;;21.96;42.12;96978.31;5046779;28;20416;-70
2023/10/02 06:55:21;;;;;;;11.63;8.23;;;;;;;22.22;41.61;96980.72;5046710;28;20554;-68
2023/10/02 06:57:50;;;;;;;13.97;7.87;;;;;;;22.64;40.66;96978.16;5045880;28;20486;-70
2023/10/02 07:00:23;;;;;;;10.77;8.20;;;;;;;22.96;39.73;96978.13;5044595;28;20437;-69
2023/10/02 07:02:56;;;;;;;14.53;8.43;;;;;;;22.77;40.24;96987.72;5046412;28;20515;-69
2023/10/02 07:05:27;;;;;;;11.93;6.90;;;;;;;22.91;39.97;96981.19;5046312;28;20892;-69
2023/10/02 07:08:01;;;;;;;11.97;8.70;;;;;;;23.08;39.71;96977.13;5046390;28;20486;-70
2023/10/02 07:10:41;;;;;;;14.43;8.40;;;;;;;22.95;40.15;96987.97;5046021;28;20509;-70
2023/10/02 07:13:18;;;;;;;12.10;8.77;;;;;;;22.64;40.82;96986.19;5046883;28;20405;-70
2023/10/02 07:15:44;;;;;;;14.20;9.10;;;;;;;22.31;41.61;96986.16;5046062;28;20429;-69
2023/10/02 07:18:12;;;;;;;15.73;9.57;;;;;;;22.30;41.87;96991.63;5046529;28;20518;-69
2023/10/02 07:20:42;;;;;;;19.20;9.37;;;;;;;21.64;43.25;96988.88;5049098;28;20207;-70
2023/10/02 07:23:19;;;;;;;15.50;9.30;;;;;;;21.72;43.43;96984.66;5046511;28;20908;-70
2023/10/02 07:25:50;;;;;;;14.40;9.67;;;;;;;21.77;43.57;96985.13;5046620;28;20829;-69
2023/10/02 07:28:21;;;;;;;13.67;10.30;;;;;;;22.02;43.18;96983.16;5045573;28;20429;-68
2023/10/02 07:30:50;;;;;;;17.30;9.80;;;;;;;22.38;42.60;96978.50;5046865;28;20461;-71
2023/10/02 07:33:19;;;;;;;24.90;9.50;;;;;;;22.65;41.92;96969.16;5046873;28;20834;-68
2023/10/02 07:35:54;;;;;;;15.87;10.37;;;;;;;22.61;42.37;96974.75;5046134;28;21290;-70
2023/10/02 07:38:21;;;;;;;14.30;9.07;;;;;;;23.02;41.46;96973.13;5046539;28;20456;-69
2023/10/02 07:40:48;;;;;;;15.23;9.53;;;;;;;22.73;42.03;96970.22;5044156;28;20429;-70
2023/10/02 07:43:20;;;;;;;19.30;10.37;;;;;;;23.02;41.75;96967.78;5045522;28;21009;-70
2023/10/02 07:46:02;;;;;;;15.33;10.20;;;;;;;22.68;42.66;96974.22;5045462;28;20418;-70
2023/10/02 07:48:33;;;;;;;17.97;10.70;;;;;;;23.01;42.14;96971.44;5045921;28;20467;-68
2023/10/02 07:51:00;;;;;;;12.47;9.87;;;;;;;22.90;42.36;96959.91;5046011;28;20417;-70
2023/10/02 07:53:38;;;;;;;18.97;10.53;;;;;;;22.81;42.74;96970.41;5045793;28;20420;-68
2023/10/02 07:56:11;;;;;;;17.30;10.63;;;;;;;22.64;43.20;96968.31;5045660;28;20789;-69
2023/10/02 07:58:43;;;;;;;18.00;10.70;;;;;;;22.83;42.99;96972.97;5043428;28;20437;-70
2023/10/02 08:01:12;;;;;;;25.53;11.07;;;;;;;22.97;42.60;96969.13;5045807;28;20420;-70
2023/10/02 08:03:43;;;;;;;24.63;12.10;;;;;;;23.15;42.76;96972.06;5047777;28;20424;-70
2023/10/02 08:06:22;;;;;;;20.07;11.07;;;;;;;23.40;42.24;96971.66;5047538;28;20924;-69
2023/10/02 08:11:50;;;;;;;27.63;10.83;;;;;;;24.02;41.40;96969.81;5045957;28;20571;-69
2023/10/02 08:14:35;;;;;;;16.30;11.30;;;;;;;24.04;41.40;96969.69;5045978;28;20401;-71
2023/10/02 08:17:27;;;;;;;18.80;11.27;;;;;;;23.62;42.47;96972.47;5026444;28;20453;-69
2023/10/02 08:19:54;;;;;;;14.43;11.40;;;;;;;23.59;42.39;96978.94;5026398;28;20437;-68
2023/10/02 08:22:23;;;;;;;16.10;10.97;;;;;;;23.30;43.03;96986.84;5026354;28;20905;-69
2023/10/02 08:24:48;;;;;;;18.53;11.00;;;;;;;23.13;43.70;96977.56;5026965;28;20494;-70
2023/10/02 08:27:14;;;;;;;18.77;14.07;;;;;;;23.18;43.64;96982.53;5028935;28;20525;-71
2023/10/02 08:29:41;;;;;;;17.30;11.20;;;;;;;23.03;44.32;96976.63;5028590;28;20195;-68
2023/10/02 08:32:07;;;;;;;17.63;11.50;;;;;;;23.16;44.32;96973.78;5034107;28;20175;-69
2023/10/02 08:34:32;;;;;;;16.30;11.13;;;;;;;23.44;43.61;96967.75;5047664;28;20738;-70
2023/10/02 08:37:12;;;;;;;17.80;11.27;;;;;;;23.62;43.69;96977.81;5050828;28;20198;-69
2023/10/02 08:39:38;;;;;;;15.77;11.20;;;;;;;23.80;42.99;96970.88;5057741;28;20187;-69
2023/10/02 08:42:10;;;;;;;28.47;14.20;;;;;;;23.68;43.83;96966.56;5055962;28;20417;-69
2023/10/02 08:44:42;;;;;;;19.00;12.57;;;;;;;23.82;43.17;96971.59;5059115;28;20788;-69
2023/10/02 08:47:12;;;;;;;17.37;12.20;;;;;;;23.26;44.83;96980.03;5049205;28;20503;-70
2023/10/02 08:49:40;;;;;;;24.00;12.97;;;;;;;23.45;44.65;96964.06;5049136;28;20425;-69
2023/10/02 08:52:13;;;;;;;16.37;11.40;;;;;;;23.75;44.22;96965.09;5049018;28;20920;-69
2023/10/02 08:54:40;;;;;;;19.43;13.00;;;;;;;23.90;44.09;96964.72;5049297;28;20413;-69
2023/10/02 08:57:08;;;;;;;16.37;11.87;;;;;;;24.28;43.08;96964.81;5048940;28;20461;-68
2023/10/02 08:59:40;;;;;;;22.30;11.87;;;;;;;24.29;43.15;96952.25;5049026;28;20432;-69
2023/10/02 09:02:08;;;;;;;20.57;12.50;;;;;;;24.37;43.64;96954.22;5048842;28;20405;-69
2023/10/02 09:04:34;;;;;;;22.47;11.53;;;;;;;24.63;42.67;96950.03;5049258;28;20420;-68
2023/10/02 09:07:21;;;;;;;18.80;11.93;;;;;;;24.36;43.44;96950.69;5049292;28;20405;-68
2023/10/02 09:09:47;;;;;;;18.43;13.47;;;;;;;24.44;43.62;96950.84;5049652;28;20550;-69
2023/10/02 09:12:15;;;;;;;18.20;11.80;;;;;;;24.85;42.89;96946.22;5049147;28;20426;-70
2023/10/02 09:14:41;;;;;;;26.87;14.23;;;;;;;24.87;42.85;96954.09;5051010;28;20460;-68
2023/10/02 09:17:18;;;;;;;35.80;17.70;;;;;;;24.84;43.60;96949.03;5052564;28;20453;-69
2023/10/02 09:20:03;;;;;;;31.20;13.90;;;;;;;24.70;43.97;96940.41;5054467;28;20444;-69
2023/10/02 09:22:28;;;;;;;20.83;13.93;;;;;;;24.75;43.66;96942.66;5073623;28;20398;-69
2023/10/02 09:25:09;;;;;;;20.47;14.10;;;;;;;24.85;44.11;96939.97;5073583;28;20408;-69
2023/10/02 09:28:00;;;;;;;32.10;14.73;;;;;;;24.48;45.03;96936.19;5072146;28;20167;-69
2023/10/02 09:33:08;;;;;;;26.90;15.03;;;;;;;24.89;44.53;96938.72;5050956;28;20778;-71
2023/10/02 09:35:40;;;;;;;27.50;13.70;;;;;;;25.28;43.28;96933.31;5048231;28;20444;-70
2023/10/02 09:38:15;;;;;;;21.20;14.27;;;;;;;25.17;43.91;96920.84;5048122;28;20492;-69
2023/10/02 09:43:33;;;;;;;21.70;14.70;;;;;;;25.26;43.42;96914.63;5047932;28;21007;-69
2023/10/02 09:46:15;;;;;;;18.17;12.50;;;;;;;25.20;43.80;96919.75;5047508;28;20524;-67
2023/10/02 09:49:01;;;;;;;22.87;16.13;;;;;;;25.26;43.90;96917.31;5047932;28;20413;-70
2023/10/02 09:51:30;;;;;;;19.20;12.23;;;;;;;25.34;44.12;96913.91;5047598;28;20405;-68
2023/10/02 09:54:08;;;;;;;24.93;15.00;;;;;;;25.36;44.38;96911.91;5047715;28;20425;-70
2023/10/02 09:57:04;;;;;;;29.30;15.80;;;;;;;25.34;44.31;96905.84;5047289;28;20444;-69
2023/10/02 09:59:48;;;;;;;23.87;14.97;;;;;;;25.31;44.44;96900.75;5044857;28;20445;-68
2023/10/02 10:10:58;;;;;;;24.40;15.40;;;;;;;25.36;45.09;96893.09;5047748;28;20915;-69
2023/10/02 10:13:37;;;;;;;22.60;13.83;;;;;;;25.34;44.99;96889.72;5047875;28;20508;-68
2023/10/02 10:16:21;;;;;;;24.50;14.20;;;;;;;25.40;44.77;96899.03;5047292;28;20482;-69
2023/10/02 10:21:56;;;;;;;24.93;14.73;;;;;;;25.32;45.16;96886.31;5047300;28;20410;-67
2023/10/02 10:24:55;;;;;;;23.20;13.20;;;;;;;25.32;45.46;96884.50;5047472;28;20417;-69
2023/10/02 10:27:39;;;;;;;32.17;16.37;;;;;;;25.38;45.27;96872.31;5047156;28;20785;-69
2023/10/02 10:30:34;;;;;;;23.23;13.90;;;;;;;25.44;45.67;96873.53;5047146;28;20470;-69
2023/10/02 10:35:34;;;;;;;27.33;13.60;;;;;;;25.68;45.03;96875.72;5047109;28;20417;-68
2023/10/02 10:38:03;;;;;;;25.77;17.57;;;;;;;25.30;45.57;96870.38;5046567;28;20580;-68
2023/10/02 10:40:44;;;;;;;23.13;15.87;;;;;;;25.07;46.29;96880.59;5046926;28;20431;-70
2023/10/02 10:43:14;;;;;;;28.73;14.60;;;;;;;25.33;46.12;96871.91;5047014;28;20466;-69
2023/10/02 10:45:40;;;;;;;29.87;15.50;;;;;;;25.25;46.39;96875.34;5046688;28;20774;-68
2023/10/02 10:48:19;;;;;;;24.70;14.27;;;;;;;25.47;46.18;96862.53;5047572;28;20763;-69
2023/10/02 10:50:59;;;;;;;24.10;13.67;;;;;;;25.64;45.68;96861.72;5046977;28;20437;-69
2023/10/02 10:53:32;;;;;;;30.03;14.60;;;;;;;25.60;45.45;96863.00;5046888;28;20496;-71
2023/10/02 10:56:17;;;;;;;27.47;13.47;;;;;;;25.63;45.69;96864.53;5047206;28;20401;-69
2023/10/02 10:58:44;;;;;;;28.27;15.27;;;;;;;25.69;45.42;96855.91;5046914;28;20405;-67
2023/10/02 11:01:13;;;;;;;22.63;13.60;;;;;;;25.77;45.64;96847.91;5047263;28;20420;-67
2023/10/02 11:03:40;;;;;;;22.67;13.60;;;;;;;25.83;45.22;96852.69;5047050;28;20404;-68
2023/10/02 11:06:09;;;;;;;34.27;14.47;;;;;;;25.99;44.96;96852.06;5046931;28;20500;-69
2023/10/02 11:08:38;;;;;;;26.83;14.33;;;;;;;25.72;45.73;96851.03;5046765;28;20412;-69
2023/10/02 11:11:19;;;;;;;20.10;13.50;;;;;;;25.91;45.41;96855.47;5046758;28;20424;-69
2023/10/02 11:13:58;;;;;;;22.13;13.17;;;;;;;25.99;46.10;96852.06;5047298;28;20419;-69
2023/10/02 11:16:37;;;;;;;24.77;12.67;;;;;;;25.15;47.86;96853.84;5047145;28;20505;-69
2023/10/02 11:19:21;;;;;;;45.27;15.60;;;;;;;25.66;47.04;96848.97;5048495;28;20469;-70
2023/10/02 11:24:44;;;;;;;19.93;13.87;;;;;;;25.64;46.69;96834.00;5048612;28;20519;-70
2023/10/02 11:27:15;;;;;;;24.30;13.70;;;;;;;25.66;46.67;96830.16;5046697;28;20527;-68
2023/10/02 11:29:41;;;;;;;21.67;12.63;;;;;;;25.91;46.48;96835.81;5048643;28;20425;-70
2023/10/02 11:32:21;;;;;;;24.20;15.30;;;;;;;25.95;46.32;96832.69;5048589;28;20904;-69
2023/10/02 11:34:51;;;;;;;25.13;15.63;;;;;;;25.29;47.94;96828.38;5048833;28;20846;-69
2023/10/02 11:37:18;;;;;;;18.50;14.20;;;;;;;25.38;47.59;96832.00;5048631;28;20453;-69
2023/10/02 11:39:45;;;;;;;34.10;17.30;;;;;;;25.19;48.17;96821.38;5048765;28;20429;-67
2023/10/02 11:42:11;;;;;;;24.63;14.20;;;;;;;25.43;47.71;96824.34;5056051;28;20439;-70
2023/10/02 11:44:39;;;;;;;28.30;14.30;;;;;;;25.66;47.41;96823.94;5056652;28;20417;-67
2023/10/02 11:47:12;;;;;;;25.73;15.37;;;;;;;25.70;47.59;96815.44;5052491;28;20285;-68
2023/10/02 11:49:38;;;;;;;23.07;15.90;;;;;;;25.83;46.84;96806.16;5045850;28;20844;-68
2023/10/02 11:52:04;;;;;;;21.87;14.17;;;;;;;25.82;47.13;96813.38;5046321;28;20504;-68
2023/10/02 11:54:36;;;;;;;40.37;15.63;;;;;;;25.68;47.54;96803.16;5046066;28;20492;-68
2023/10/02 11:57:08;;;;;;;29.87;15.27;;;;;;;25.79;47.00;96802.91;5045489;28;20352;-68
2023/10/02 11:59:35;;;;;;;26.03;14.87;;;;;;;25.78;47.19;96796.69;5046336;28;20826;-68
2023/10/02 12:02:01;;;;;;;35.93;16.93;;;;;;;25.73;47.05;96790.94;5046427;28;20413;-69
2023/10/02 12:04:30;;;;;;;27.13;16.17;;;;;;;25.83;46.55;96785.47;5046186;28;20428;-69
2023/10/02 12:06:56;;;;;;;23.67;13.70;;;;;;;25.58;47.19;96786.22;5045622;28;20417;-71
2023/10/02 12:09:24;;;;;;;31.67;16.27;;;;;;;25.60;46.83;96785.06;5045707;28;20482;-71
2023/10/02 12:11:50;;;;;;;26.17;16.63;;;;;;;25.72;46.13;96780.31;5049729;28;20417;-69
2023/10/02 12:14:15;;;;;;;25.43;14.90;;;;;;;25.83;46.63;96782.78;5049341;28;20416;-67
2023/10/02 12:16:41;;;;;;;23.90;13.93;;;;;;;25.82;46.44;96780.25;5049378;28;20203;-69
2023/10/02 12:19:10;;;;;;;26.57;16.17;;;;;;;25.81;46.23;96773.19;5049727;28;20820;-68
2023/10/02 12:21:36;;;;;;;23.40;15.90;;;;;;;25.81;45.88;96773.19;5049503;28;20171;-70
2023/10/02 12:24:03;;;;;;;30.80;18.80;;;;;;;25.90;45.65;96766.91;5049651;28;20983;-70
2023/10/02 12:26:29;;;;;;;25.37;16.67;;;;;;;25.45;46.79;96765.09;5049101;28;20415;-68
2023/10/02 12:28:54;;;;;;;37.13;18.40;;;;;;;25.04;48.36;96762.75;5049347;28;21272;-67
2023/10/02 12:31:20;;;;;;;32.03;18.23;;;;;;;24.89;48.64;96761.53;5049354;28;20166;-70
2023/10/02 12:33:47;;;;;;;31.87;19.30;;;;;;;24.65;48.68;96759.34;5049404;28;20535;-69
2023/10/02 12:36:15;;;;;;;29.73;17.87;;;;;;;24.84;48.68;96759.28;5049398;28;20536;-69
2023/10/02 12:38:41;;;;;;;37.23;17.03;;;;;;;25.03;48.40;96750.28;5049162;28;20488;-70
2023/10/02 12:41:23;;;;;;;27.70;17.27;;;;;;;25.30;48.04;96754.84;5049256;28;20502;-68
2023/10/02 12:43:56;;;;;;;26.80;16.90;;;;;;;24.82;49.17;96752.38;5049046;28;20162;-69
2023/10/02 12:46:24;;;;;;;28.47;17.60;;;;;;;24.89;48.71;96745.41;5049018;28;20416;-70
2023/10/02 12:48:50;;;;;;;27.97;15.93;;;;;;;24.90;48.61;96742.59;5049077;28;20409;-68
2023/10/02 12:51:17;;;;;;;29.70;18.33;;;;;;;25.09;48.19;96738.13;5049053;28;21272;-70